sensor_id;sensor_type;location;lat;lon;timestamp;P1;durP1;ratioP1;P2;durP2;ratioP2
830;SDS011;397;50.564;7.272;2023-04-25T00:01:26;8.83;;;6.03;;
830;SDS011;397;50.564;7.272;2023-04-25T00:03:54;9.53;;;5.63;;
830;SDS011;397;50.564;7.272;2023-04-25T00:06:22;10.13;;;5.63;;
830;SDS011;397;50.564;7.272;2023-04-25T00:08:52;7.93;;;6.10;;
830;SDS011;397;50.564;7.272;2023-04-25T00:11:21;9.00;;;6.93;;
830;SDS011;397;50.564;7.272;2023-04-25T00:13:49;8.70;;;4.90;;
830;SDS011;397;50.564;7.272;2023-04-25T00:16:17;7.70;;;4.87;;
830;SDS011;397;50.564;7.272;2023-04-25T00:18:45;7.27;;;5.07;;
830;SDS011;397;50.564;7.272;2023-04-25T00:21:14;8.03;;;4.60;;
830;SDS011;397;50.564;7.272;2023-04-25T00:23:43;7.40;;;4.43;;
830;SDS011;397;50.564;7.272;2023-04-25T00:26:11;5.20;;;4.70;;
830;SDS011;397;50.564;7.272;2023-04-25T00:28:39;6.00;;;4.50;;
830;SDS011;397;50.564;7.272;2023-04-25T00:31:07;10.43;;;5.20;;
830;SDS011;397;50.564;7.272;2023-04-25T00:33:34;6.60;;;4.93;;
830;SDS011;397;50.564;7.272;2023-04-25T00:36:02;6.23;;;4.17;;
830;SDS011;397;50.564;7.272;2023-04-25T00:38:29;10.40;;;4.60;;
830;SDS011;397;50.564;7.272;2023-04-25T00:40:57;6.77;;;4.40;;
830;SDS011;397;50.564;7.272;2023-04-25T00:43:25;8.57;;;5.17;;
830;SDS011;397;50.564;7.272;2023-04-25T00:45:53;10.20;;;4.90;;
830;SDS011;397;50.564;7.272;2023-04-25T00:48:23;6.83;;;4.77;;
830;SDS011;397;50.564;7.272;2023-04-25T00:50:54;9.43;;;5.20;;
830;SDS011;397;50.564;7.272;2023-04-25T00:53:26;9.20;;;6.00;;
830;SDS011;397;50.564;7.272;2023-04-25T00:55:54;8.73;;;4.40;;
830;SDS011;397;50.564;7.272;2023-04-25T00:58:22;10.37;;;6.43;;
830;SDS011;397;50.564;7.272;2023-04-25T01:00:51;12.20;;;5.50;;
830;SDS011;397;50.564;7.272;2023-04-25T01:03:19;6.00;;;4.80;;
830;SDS011;397;50.564;7.272;2023-04-25T01:59:31;9.90;;;7.43;;
830;SDS011;397;50.564;7.272;2023-04-25T02:02:00;11.87;;;7.57;;
830;SDS011;397;50.564;7.272;2023-04-25T02:04:29;11.77;;;8.60;;
830;SDS011;397;50.564;7.272;2023-04-25T02:06:57;13.50;;;8.40;;
830;SDS011;397;50.564;7.272;2023-04-25T02:09:25;11.73;;;8.10;;
830;SDS011;397;50.564;7.272;2023-04-25T02:11:53;11.27;;;8.50;;
830;SDS011;397;50.564;7.272;2023-04-25T02:14:20;17.37;;;8.57;;
830;SDS011;397;50.564;7.272;2023-04-25T02:16:48;10.53;;;9.27;;
830;SDS011;397;50.564;7.272;2023-04-25T02:19:16;11.10;;;7.30;;
830;SDS011;397;50.564;7.272;2023-04-25T02:21:44;9.63;;;6.60;;
830;SDS011;397;50.564;7.272;2023-04-25T02:24:12;14.97;;;7.47;;
830;SDS011;397;50.564;7.272;2023-04-25T02:26:39;10.77;;;7.23;;
830;SDS011;397;50.564;7.272;2023-04-25T02:29:06;13.30;;;7.63;;
830;SDS011;397;50.564;7.272;2023-04-25T02:31:34;11.93;;;7.07;;
830;SDS011;397;50.564;7.272;2023-04-25T02:34:02;13.10;;;7.90;;
830;SDS011;397;50.564;7.272;2023-04-25T02:36:30;11.90;;;6.63;;
830;SDS011;397;50.564;7.272;2023-04-25T02:38:59;15.83;;;7.30;;
830;SDS011;397;50.564;7.272;2023-04-25T02:41:28;13.67;;;6.27;;
830;SDS011;397;50.564;7.272;2023-04-25T02:43:56;8.60;;;5.43;;
830;SDS011;397;50.564;7.272;2023-04-25T02:46:23;12.07;;;7.30;;
830;SDS011;397;50.564;7.272;2023-04-25T02:48:51;12.83;;;6.40;;
830;SDS011;397;50.564;7.272;2023-04-25T02:51:18;10.47;;;8.33;;
830;SDS011;397;50.564;7.272;2023-04-25T02:53:46;9.90;;;6.73;;
830;SDS011;397;50.564;7.272;2023-04-25T02:56:13;11.10;;;7.40;;
830;SDS011;397;50.564;7.272;2023-04-25T02:58:41;10.97;;;7.20;;
830;SDS011;397;50.564;7.272;2023-04-25T03:01:09;9.47;;;7.63;;
830;SDS011;397;50.564;7.272;2023-04-25T03:03:36;9.30;;;7.40;;
830;SDS011;397;50.564;7.272;2023-04-25T03:06:04;8.10;;;7.03;;
830;SDS011;397;50.564;7.272;2023-04-25T03:08:31;14.57;;;7.70;;
830;SDS011;397;50.564;7.272;2023-04-25T03:11:00;11.70;;;7.20;;
830;SDS011;397;50.564;7.272;2023-04-25T03:13:27;11.13;;;7.87;;
830;SDS011;397;50.564;7.272;2023-04-25T03:15:55;10.07;;;7.73;;
830;SDS011;397;50.564;7.272;2023-04-25T03:18:23;10.90;;;6.67;;
830;SDS011;397;50.564;7.272;2023-04-25T03:20:50;15.00;;;8.07;;
830;SDS011;397;50.564;7.272;2023-04-25T03:23:18;14.37;;;8.00;;
830;SDS011;397;50.564;7.272;2023-04-25T03:25:45;11.27;;;9.30;;
830;SDS011;397;50.564;7.272;2023-04-25T03:28:13;13.47;;;9.03;;
830;SDS011;397;50.564;7.272;2023-04-25T03:30:40;12.90;;;8.30;;
830;SDS011;397;50.564;7.272;2023-04-25T03:33:08;13.27;;;7.60;;
830;SDS011;397;50.564;7.272;2023-04-25T03:35:35;9.00;;;7.40;;
830;SDS011;397;50.564;7.272;2023-04-25T03:38:03;12.33;;;7.73;;
830;SDS011;397;50.564;7.272;2023-04-25T03:40:30;14.70;;;8.73;;
830;SDS011;397;50.564;7.272;2023-04-25T03:42:58;13.40;;;7.20;;
830;SDS011;397;50.564;7.272;2023-04-25T03:45:25;11.37;;;7.40;;
830;SDS011;397;50.564;7.272;2023-04-25T03:47:53;13.10;;;7.33;;
830;SDS011;397;50.564;7.272;2023-04-25T03:50:20;11.10;;;6.50;;
830;SDS011;397;50.564;7.272;2023-04-25T03:52:48;10.33;;;6.70;;
830;SDS011;397;50.564;7.272;2023-04-25T03:55:16;15.27;;;6.67;;
830;SDS011;397;50.564;7.272;2023-04-25T03:57:43;14.13;;;7.50;;
830;SDS011;397;50.564;7.272;2023-04-25T04:00:11;13.27;;;7.77;;
830;SDS011;397;50.564;7.272;2023-04-25T04:02:39;10.40;;;6.90;;
830;SDS011;397;50.564;7.272;2023-04-25T04:05:07;12.47;;;7.07;;
830;SDS011;397;50.564;7.272;2023-04-25T04:07:35;9.60;;;7.77;;
830;SDS011;397;50.564;7.272;2023-04-25T04:10:11;16.73;;;7.60;;
830;SDS011;397;50.564;7.272;2023-04-25T04:12:39;12.90;;;7.10;;
830;SDS011;397;50.564;7.272;2023-04-25T04:15:07;15.07;;;7.87;;
830;SDS011;397;50.564;7.272;2023-04-25T04:17:35;15.83;;;7.87;;
830;SDS011;397;50.564;7.272;2023-04-25T04:20:03;10.80;;;7.47;;
830;SDS011;397;50.564;7.272;2023-04-25T04:22:32;10.73;;;6.27;;
830;SDS011;397;50.564;7.272;2023-04-25T04:24:59;11.87;;;6.50;;
830;SDS011;397;50.564;7.272;2023-04-25T04:27:28;12.47;;;5.80;;
830;SDS011;397;50.564;7.272;2023-04-25T04:29:55;18.47;;;6.73;;
830;SDS011;397;50.564;7.272;2023-04-25T04:32:23;12.90;;;6.90;;
830;SDS011;397;50.564;7.272;2023-04-25T04:34:51;14.73;;;7.63;;
830;SDS011;397;50.564;7.272;2023-04-25T04:37:20;14.87;;;7.90;;
830;SDS011;397;50.564;7.272;2023-04-25T04:39:48;11.13;;;7.23;;
830;SDS011;397;50.564;7.272;2023-04-25T04:42:15;28.53;;;8.13;;
830;SDS011;397;50.564;7.272;2023-04-25T04:44:43;18.40;;;7.60;;
830;SDS011;397;50.564;7.272;2023-04-25T04:47:11;9.20;;;7.40;;
830;SDS011;397;50.564;7.272;2023-04-25T04:49:39;15.73;;;7.10;;
830;SDS011;397;50.564;7.272;2023-04-25T04:52:07;14.43;;;7.70;;
830;SDS011;397;50.564;7.272;2023-04-25T04:54:34;15.03;;;8.20;;
830;SDS011;397;50.564;7.272;2023-04-25T04:57:02;15.93;;;8.17;;
830;SDS011;397;50.564;7.272;2023-04-25T04:59:29;10.77;;;6.33;;
830;SDS011;397;50.564;7.272;2023-04-25T05:01:57;10.43;;;6.47;;
830;SDS011;397;50.564;7.272;2023-04-25T05:04:24;13.40;;;7.40;;
830;SDS011;397;50.564;7.272;2023-04-25T05:06:52;10.40;;;6.90;;
830;SDS011;397;50.564;7.272;2023-04-25T05:09:19;16.43;;;8.10;;
830;SDS011;397;50.564;7.272;2023-04-25T05:11:48;14.43;;;7.27;;
830;SDS011;397;50.564;7.272;2023-04-25T05:14:16;12.87;;;6.97;;
830;SDS011;397;50.564;7.272;2023-04-25T05:16:44;13.20;;;7.37;;
830;SDS011;397;50.564;7.272;2023-04-25T05:19:11;11.70;;;6.70;;
830;SDS011;397;50.564;7.272;2023-04-25T05:21:39;20.17;;;8.00;;
830;SDS011;397;50.564;7.272;2023-04-25T05:24:07;12.40;;;7.63;;
830;SDS011;397;50.564;7.272;2023-04-25T05:26:34;11.70;;;5.67;;
830;SDS011;397;50.564;7.272;2023-04-25T05:29:02;10.03;;;5.60;;
830;SDS011;397;50.564;7.272;2023-04-25T05:31:29;11.80;;;6.00;;
830;SDS011;397;50.564;7.272;2023-04-25T05:33:57;10.77;;;5.63;;
830;SDS011;397;50.564;7.272;2023-04-25T05:36:25;11.47;;;5.50;;
830;SDS011;397;50.564;7.272;2023-04-25T05:38:53;12.40;;;6.37;;
830;SDS011;397;50.564;7.272;2023-04-25T05:41:21;11.77;;;6.97;;
830;SDS011;397;50.564;7.272;2023-04-25T05:43:48;10.90;;;5.90;;
830;SDS011;397;50.564;7.272;2023-04-25T05:46:16;12.90;;;6.27;;
830;SDS011;397;50.564;7.272;2023-04-25T05:48:45;15.23;;;7.50;;
830;SDS011;397;50.564;7.272;2023-04-25T05:51:12;16.40;;;7.43;;
830;SDS011;397;50.564;7.272;2023-04-25T05:53:40;12.53;;;7.77;;
830;SDS011;397;50.564;7.272;2023-04-25T05:56:07;11.53;;;7.00;;
830;SDS011;397;50.564;7.272;2023-04-25T05:58:35;11.80;;;6.70;;
830;SDS011;397;50.564;7.272;2023-04-25T06:01:02;10.67;;;6.00;;
830;SDS011;397;50.564;7.272;2023-04-25T06:03:30;13.67;;;6.00;;
830;SDS011;397;50.564;7.272;2023-04-25T06:05:58;16.10;;;6.40;;
830;SDS011;397;50.564;7.272;2023-04-25T06:08:25;15.10;;;6.93;;
830;SDS011;397;50.564;7.272;2023-04-25T06:10:53;16.73;;;6.60;;
830;SDS011;397;50.564;7.272;2023-04-25T06:13:20;12.17;;;6.10;;
830;SDS011;397;50.564;7.272;2023-04-25T06:15:48;16.23;;;6.00;;
830;SDS011;397;50.564;7.272;2023-04-25T06:18:16;17.90;;;7.23;;
830;SDS011;397;50.564;7.272;2023-04-25T06:20:43;14.40;;;7.30;;
830;SDS011;397;50.564;7.272;2023-04-25T06:23:11;16.70;;;8.00;;
830;SDS011;397;50.564;7.272;2023-04-25T06:25:38;14.83;;;6.30;;
830;SDS011;397;50.564;7.272;2023-04-25T06:28:06;14.20;;;7.33;;
830;SDS011;397;50.564;7.272;2023-04-25T06:30:33;16.80;;;6.50;;
830;SDS011;397;50.564;7.272;2023-04-25T06:33:01;11.67;;;6.73;;
830;SDS011;397;50.564;7.272;2023-04-25T06:35:29;16.00;;;7.27;;
830;SDS011;397;50.564;7.272;2023-04-25T06:37:56;13.70;;;8.13;;
830;SDS011;397;50.564;7.272;2023-04-25T06:40:24;13.87;;;6.67;;
830;SDS011;397;50.564;7.272;2023-04-25T06:42:51;12.27;;;6.67;;
830;SDS011;397;50.564;7.272;2023-04-25T06:45:19;14.60;;;7.23;;
830;SDS011;397;50.564;7.272;2023-04-25T06:47:46;16.47;;;8.40;;
830;SDS011;397;50.564;7.272;2023-04-25T06:50:14;16.47;;;8.60;;
830;SDS011;397;50.564;7.272;2023-04-25T06:52:41;18.77;;;7.20;;
830;SDS011;397;50.564;7.272;2023-04-25T06:55:09;17.63;;;7.30;;
830;SDS011;397;50.564;7.272;2023-04-25T06:57:36;12.83;;;7.30;;
830;SDS011;397;50.564;7.272;2023-04-25T07:00:04;21.53;;;6.63;;
830;SDS011;397;50.564;7.272;2023-04-25T07:02:34;13.07;;;6.60;;
830;SDS011;397;50.564;7.272;2023-04-25T07:05:02;14.87;;;7.50;;
830;SDS011;397;50.564;7.272;2023-04-25T07:07:30;14.97;;;7.50;;
830;SDS011;397;50.564;7.272;2023-04-25T07:09:57;14.80;;;6.60;;
830;SDS011;397;50.564;7.272;2023-04-25T07:12:25;9.40;;;6.73;;
830;SDS011;397;50.564;7.272;2023-04-25T07:14:52;14.40;;;6.30;;
830;SDS011;397;50.564;7.272;2023-04-25T07:17:20;13.30;;;6.00;;
830;SDS011;397;50.564;7.272;2023-04-25T07:19:47;14.53;;;7.20;;
830;SDS011;397;50.564;7.272;2023-04-25T07:22:16;14.53;;;7.17;;
830;SDS011;397;50.564;7.272;2023-04-25T07:24:44;10.83;;;6.97;;
830;SDS011;397;50.564;7.272;2023-04-25T07:27:13;13.90;;;6.37;;
830;SDS011;397;50.564;7.272;2023-04-25T07:29:40;12.77;;;7.00;;
830;SDS011;397;50.564;7.272;2023-04-25T07:32:08;15.33;;;6.00;;
830;SDS011;397;50.564;7.272;2023-04-25T07:34:37;11.97;;;5.20;;
830;SDS011;397;50.564;7.272;2023-04-25T07:37:05;16.87;;;6.80;;
830;SDS011;397;50.564;7.272;2023-04-25T07:39:32;9.77;;;5.30;;
830;SDS011;397;50.564;7.272;2023-04-25T07:42:00;16.37;;;6.20;;
830;SDS011;397;50.564;7.272;2023-04-25T07:44:29;17.63;;;7.70;;
830;SDS011;397;50.564;7.272;2023-04-25T07:46:57;16.70;;;7.03;;
830;SDS011;397;50.564;7.272;2023-04-25T07:49:24;19.43;;;6.20;;
830;SDS011;397;50.564;7.272;2023-04-25T07:51:52;10.10;;;5.00;;
830;SDS011;397;50.564;7.272;2023-04-25T07:54:19;16.20;;;6.30;;
830;SDS011;397;50.564;7.272;2023-04-25T07:56:47;14.50;;;5.57;;
830;SDS011;397;50.564;7.272;2023-04-25T07:59:14;12.50;;;5.53;;
830;SDS011;397;50.564;7.272;2023-04-25T08:01:41;8.43;;;5.07;;
830;SDS011;397;50.564;7.272;2023-04-25T08:04:09;12.53;;;4.67;;
830;SDS011;397;50.564;7.272;2023-04-25T08:06:37;11.93;;;4.40;;
830;SDS011;397;50.564;7.272;2023-04-25T08:09:04;14.50;;;5.67;;
830;SDS011;397;50.564;7.272;2023-04-25T08:11:32;8.93;;;4.83;;
830;SDS011;397;50.564;7.272;2023-04-25T08:13:59;9.43;;;6.03;;
830;SDS011;397;50.564;7.272;2023-04-25T08:16:27;11.83;;;4.90;;
830;SDS011;397;50.564;7.272;2023-04-25T08:18:55;12.20;;;4.57;;
830;SDS011;397;50.564;7.272;2023-04-25T08:21:23;12.47;;;5.77;;
830;SDS011;397;50.564;7.272;2023-04-25T08:23:52;10.73;;;4.67;;
830;SDS011;397;50.564;7.272;2023-04-25T08:26:20;8.30;;;4.17;;
830;SDS011;397;50.564;7.272;2023-04-25T08:28:47;12.60;;;4.73;;
830;SDS011;397;50.564;7.272;2023-04-25T08:31:15;10.20;;;5.15;;
830;SDS011;397;50.564;7.272;2023-04-25T08:33:42;10.53;;;5.37;;
830;SDS011;397;50.564;7.272;2023-04-25T08:36:10;10.20;;;6.13;;
830;SDS011;397;50.564;7.272;2023-04-25T08:38:38;13.30;;;5.33;;
830;SDS011;397;50.564;7.272;2023-04-25T08:41:05;7.80;;;3.93;;
830;SDS011;397;50.564;7.272;2023-04-25T08:43:33;8.93;;;4.63;;
830;SDS011;397;50.564;7.272;2023-04-25T08:46:02;16.30;;;9.70;;
830;SDS011;397;50.564;7.272;2023-04-25T08:48:31;17.73;;;10.97;;
830;SDS011;397;50.564;7.272;2023-04-25T08:51:01;12.07;;;4.57;;
830;SDS011;397;50.564;7.272;2023-04-25T08:53:32;10.87;;;4.50;;
830;SDS011;397;50.564;7.272;2023-04-25T08:56:00;11.70;;;4.40;;
830;SDS011;397;50.564;7.272;2023-04-25T08:58:28;10.00;;;4.23;;
830;SDS011;397;50.564;7.272;2023-04-25T09:00:57;13.63;;;6.13;;
830;SDS011;397;50.564;7.272;2023-04-25T09:03:25;13.60;;;4.77;;
830;SDS011;397;50.564;7.272;2023-04-25T09:05:53;14.57;;;8.27;;
830;SDS011;397;50.564;7.272;2023-04-25T09:08:21;9.40;;;5.33;;
830;SDS011;397;50.564;7.272;2023-04-25T09:10:49;8.80;;;4.10;;
830;SDS011;397;50.564;7.272;2023-04-25T09:13:24;8.13;;;3.50;;
830;SDS011;397;50.564;7.272;2023-04-25T09:15:53;10.83;;;4.30;;
830;SDS011;397;50.564;7.272;2023-04-25T09:18:31;10.10;;;4.23;;
830;SDS011;397;50.564;7.272;2023-04-25T09:20:57;7.10;;;3.90;;
830;SDS011;397;50.564;7.272;2023-04-25T09:23:26;13.33;;;5.03;;
830;SDS011;397;50.564;7.272;2023-04-25T09:25:54;9.43;;;4.37;;
830;SDS011;397;50.564;7.272;2023-04-25T09:28:24;10.43;;;4.63;;
830;SDS011;397;50.564;7.272;2023-04-25T09:30:56;9.37;;;4.27;;
830;SDS011;397;50.564;7.272;2023-04-25T09:33:33;9.53;;;4.80;;
830;SDS011;397;50.564;7.272;2023-04-25T09:36:04;10.07;;;4.50;;
830;SDS011;397;50.564;7.272;2023-04-25T09:38:41;10.67;;;4.70;;
830;SDS011;397;50.564;7.272;2023-04-25T09:41:09;10.40;;;4.10;;
830;SDS011;397;50.564;7.272;2023-04-25T09:43:37;14.17;;;4.30;;
830;SDS011;397;50.564;7.272;2023-04-25T09:46:09;8.27;;;4.70;;
830;SDS011;397;50.564;7.272;2023-04-25T09:48:37;11.43;;;5.20;;
830;SDS011;397;50.564;7.272;2023-04-25T09:51:08;9.33;;;4.53;;
830;SDS011;397;50.564;7.272;2023-04-25T09:53:38;7.53;;;3.83;;
830;SDS011;397;50.564;7.272;2023-04-25T09:56:07;9.13;;;4.60;;
830;SDS011;397;50.564;7.272;2023-04-25T09:58:37;9.93;;;4.27;;
830;SDS011;397;50.564;7.272;2023-04-25T10:01:06;7.10;;;4.17;;
830;SDS011;397;50.564;7.272;2023-04-25T10:03:40;7.87;;;4.33;;
830;SDS011;397;50.564;7.272;2023-04-25T10:06:12;12.67;;;4.10;;
830;SDS011;397;50.564;7.272;2023-04-25T10:08:41;9.17;;;4.80;;
830;SDS011;397;50.564;7.272;2023-04-25T10:11:09;9.30;;;4.97;;
830;SDS011;397;50.564;7.272;2023-04-25T10:13:39;8.17;;;4.70;;
830;SDS011;397;50.564;7.272;2023-04-25T10:16:07;10.00;;;4.60;;
830;SDS011;397;50.564;7.272;2023-04-25T10:18:35;10.30;;;4.63;;
830;SDS011;397;50.564;7.272;2023-04-25T10:21:04;11.63;;;4.10;;
830;SDS011;397;50.564;7.272;2023-04-25T10:23:32;9.77;;;4.23;;
830;SDS011;397;50.564;7.272;2023-04-25T10:26:01;11.60;;;5.50;;
830;SDS011;397;50.564;7.272;2023-04-25T10:28:29;8.37;;;4.50;;
830;SDS011;397;50.564;7.272;2023-04-25T10:33:35;11.43;;;5.00;;
830;SDS011;397;50.564;7.272;2023-04-25T10:36:13;9.67;;;3.50;;
830;SDS011;397;50.564;7.272;2023-04-25T10:38:43;7.93;;;3.40;;
830;SDS011;397;50.564;7.272;2023-04-25T10:41:12;8.20;;;4.40;;
830;SDS011;397;50.564;7.272;2023-04-25T10:43:44;8.90;;;4.00;;
830;SDS011;397;50.564;7.272;2023-04-25T10:46:23;9.77;;;3.67;;
830;SDS011;397;50.564;7.272;2023-04-25T10:48:53;8.23;;;4.30;;
830;SDS011;397;50.564;7.272;2023-04-25T10:51:25;7.33;;;3.77;;
830;SDS011;397;50.564;7.272;2023-04-25T10:53:57;7.40;;;3.80;;
830;SDS011;397;50.564;7.272;2023-04-25T10:56:27;8.13;;;5.03;;
830;SDS011;397;50.564;7.272;2023-04-25T10:59:07;10.47;;;4.50;;
830;SDS011;397;50.564;7.272;2023-04-25T11:01:43;6.60;;;3.47;;
830;SDS011;397;50.564;7.272;2023-04-25T11:04:19;7.20;;;3.73;;
830;SDS011;397;50.564;7.272;2023-04-25T11:09:39;8.57;;;4.27;;
830;SDS011;397;50.564;7.272;2023-04-25T11:12:07;7.03;;;2.73;;
830;SDS011;397;50.564;7.272;2023-04-25T11:14:37;6.20;;;2.93;;
830;SDS011;397;50.564;7.272;2023-04-25T11:17:04;6.77;;;2.30;;
830;SDS011;397;50.564;7.272;2023-04-25T11:19:32;6.07;;;2.30;;
830;SDS011;397;50.564;7.272;2023-04-25T11:22:00;6.30;;;2.77;;
830;SDS011;397;50.564;7.272;2023-04-25T11:24:33;6.93;;;3.20;;
830;SDS011;397;50.564;7.272;2023-04-25T11:26:58;6.30;;;3.10;;
830;SDS011;397;50.564;7.272;2023-04-25T11:29:28;6.67;;;3.00;;
830;SDS011;397;50.564;7.272;2023-04-25T11:31:56;6.03;;;2.53;;
830;SDS011;397;50.564;7.272;2023-04-25T11:34:24;5.77;;;3.00;;
830;SDS011;397;50.564;7.272;2023-04-25T11:36:52;7.67;;;3.30;;
830;SDS011;397;50.564;7.272;2023-04-25T11:39:20;7.10;;;2.93;;
830;SDS011;397;50.564;7.272;2023-04-25T11:41:48;7.27;;;2.93;;
830;SDS011;397;50.564;7.272;2023-04-25T11:44:16;11.77;;;2.90;;
830;SDS011;397;50.564;7.272;2023-04-25T11:46:44;6.90;;;3.80;;
830;SDS011;397;50.564;7.272;2023-04-25T11:49:13;8.00;;;3.77;;
830;SDS011;397;50.564;7.272;2023-04-25T11:51:45;7.67;;;3.07;;
830;SDS011;397;50.564;7.272;2023-04-25T11:54:14;7.20;;;4.20;;
830;SDS011;397;50.564;7.272;2023-04-25T11:56:42;11.83;;;4.30;;
830;SDS011;397;50.564;7.272;2023-04-25T11:59:12;5.17;;;3.20;;
830;SDS011;397;50.564;7.272;2023-04-25T12:01:47;7.37;;;3.23;;
830;SDS011;397;50.564;7.272;2023-04-25T12:04:15;5.77;;;3.13;;
830;SDS011;397;50.564;7.272;2023-04-25T12:06:45;9.47;;;3.10;;
830;SDS011;397;50.564;7.272;2023-04-25T12:09:14;7.43;;;2.90;;
830;SDS011;397;50.564;7.272;2023-04-25T12:11:48;11.63;;;3.80;;
830;SDS011;397;50.564;7.272;2023-04-25T12:14:21;5.33;;;3.27;;
830;SDS011;397;50.564;7.272;2023-04-25T12:16:57;8.57;;;2.83;;
830;SDS011;397;50.564;7.272;2023-04-25T12:19:31;9.27;;;3.37;;
830;SDS011;397;50.564;7.272;2023-04-25T12:22:00;7.50;;;3.80;;
830;SDS011;397;50.564;7.272;2023-04-25T12:24:33;8.17;;;3.57;;
830;SDS011;397;50.564;7.272;2023-04-25T12:27:02;6.10;;;3.50;;
830;SDS011;397;50.564;7.272;2023-04-25T12:29:31;9.93;;;3.70;;
830;SDS011;397;50.564;7.272;2023-04-25T12:32:00;8.90;;;3.90;;
830;SDS011;397;50.564;7.272;2023-04-25T12:34:31;7.77;;;3.20;;
830;SDS011;397;50.564;7.272;2023-04-25T12:37:01;7.80;;;3.57;;
830;SDS011;397;50.564;7.272;2023-04-25T12:39:28;7.23;;;3.00;;
830;SDS011;397;50.564;7.272;2023-04-25T12:41:56;8.63;;;3.20;;
830;SDS011;397;50.564;7.272;2023-04-25T12:44:24;5.63;;;3.10;;
830;SDS011;397;50.564;7.272;2023-04-25T12:46:52;7.33;;;2.87;;
830;SDS011;397;50.564;7.272;2023-04-25T12:49:20;7.10;;;2.97;;
830;SDS011;397;50.564;7.272;2023-04-25T12:51:48;9.20;;;3.37;;
830;SDS011;397;50.564;7.272;2023-04-25T12:54:17;10.23;;;3.37;;
830;SDS011;397;50.564;7.272;2023-04-25T12:56:44;9.03;;;3.60;;
830;SDS011;397;50.564;7.272;2023-04-25T12:59:13;6.67;;;4.07;;
830;SDS011;397;50.564;7.272;2023-04-25T13:01:41;12.37;;;3.43;;
830;SDS011;397;50.564;7.272;2023-04-25T13:04:08;11.90;;;4.63;;
830;SDS011;397;50.564;7.272;2023-04-25T13:06:36;8.27;;;2.90;;
830;SDS011;397;50.564;7.272;2023-04-25T13:09:03;12.10;;;3.47;;
830;SDS011;397;50.564;7.272;2023-04-25T13:11:32;8.70;;;3.60;;
830;SDS011;397;50.564;7.272;2023-04-25T13:14:00;10.43;;;3.33;;
830;SDS011;397;50.564;7.272;2023-04-25T13:16:27;10.60;;;4.00;;
830;SDS011;397;50.564;7.272;2023-04-25T13:18:55;9.03;;;4.20;;
830;SDS011;397;50.564;7.272;2023-04-25T13:21:22;8.73;;;3.60;;
830;SDS011;397;50.564;7.272;2023-04-25T13:23:51;9.27;;;4.27;;
830;SDS011;397;50.564;7.272;2023-04-25T13:26:18;8.20;;;4.63;;
830;SDS011;397;50.564;7.272;2023-04-25T13:28:46;7.13;;;3.33;;
830;SDS011;397;50.564;7.272;2023-04-25T13:31:13;10.63;;;3.33;;
830;SDS011;397;50.564;7.272;2023-04-25T13:33:41;5.67;;;2.63;;
830;SDS011;397;50.564;7.272;2023-04-25T13:36:08;6.67;;;3.47;;
830;SDS011;397;50.564;7.272;2023-04-25T13:38:36;3.23;;;2.10;;
830;SDS011;397;50.564;7.272;2023-04-25T13:41:05;8.70;;;2.90;;
830;SDS011;397;50.564;7.272;2023-04-25T13:43:32;9.03;;;2.70;;
830;SDS011;397;50.564;7.272;2023-04-25T13:46:00;5.93;;;2.47;;
830;SDS011;397;50.564;7.272;2023-04-25T13:48:28;13.73;;;4.00;;
830;SDS011;397;50.564;7.272;2023-04-25T13:50:56;15.90;;;9.10;;
830;SDS011;397;50.564;7.272;2023-04-25T13:53:23;7.97;;;2.60;;
830;SDS011;397;50.564;7.272;2023-04-25T13:55:51;8.03;;;3.10;;
830;SDS011;397;50.564;7.272;2023-04-25T13:58:18;11.03;;;4.90;;
830;SDS011;397;50.564;7.272;2023-04-25T14:00:46;6.93;;;2.87;;
830;SDS011;397;50.564;7.272;2023-04-25T14:03:14;4.93;;;2.83;;
830;SDS011;397;50.564;7.272;2023-04-25T14:05:42;8.90;;;2.70;;
830;SDS011;397;50.564;7.272;2023-04-25T14:08:09;5.57;;;2.80;;
830;SDS011;397;50.564;7.272;2023-04-25T14:10:37;9.10;;;2.70;;
830;SDS011;397;50.564;7.272;2023-04-25T14:13:04;8.23;;;2.87;;
830;SDS011;397;50.564;7.272;2023-04-25T14:15:32;7.73;;;3.80;;
830;SDS011;397;50.564;7.272;2023-04-25T14:18:01;8.50;;;2.90;;
830;SDS011;397;50.564;7.272;2023-04-25T14:20:28;8.50;;;3.90;;
830;SDS011;397;50.564;7.272;2023-04-25T14:22:57;11.60;;;6.13;;
830;SDS011;397;50.564;7.272;2023-04-25T14:25:25;6.73;;;3.33;;
830;SDS011;397;50.564;7.272;2023-04-25T14:27:55;9.30;;;3.73;;
830;SDS011;397;50.564;7.272;2023-04-25T14:30:22;7.37;;;3.37;;
830;SDS011;397;50.564;7.272;2023-04-25T14:32:50;4.20;;;2.60;;
830;SDS011;397;50.564;7.272;2023-04-25T14:35:17;6.00;;;2.83;;
830;SDS011;397;50.564;7.272;2023-04-25T14:37:45;7.80;;;3.63;;
830;SDS011;397;50.564;7.272;2023-04-25T14:40:13;7.20;;;3.50;;
830;SDS011;397;50.564;7.272;2023-04-25T14:42:42;5.80;;;2.70;;
830;SDS011;397;50.564;7.272;2023-04-25T14:45:10;4.60;;;2.90;;
830;SDS011;397;50.564;7.272;2023-04-25T14:47:37;6.43;;;2.97;;
830;SDS011;397;50.564;7.272;2023-04-25T14:50:06;9.33;;;2.73;;
830;SDS011;397;50.564;7.272;2023-04-25T14:52:34;6.87;;;2.80;;
830;SDS011;397;50.564;7.272;2023-04-25T14:55:02;7.33;;;2.70;;
830;SDS011;397;50.564;7.272;2023-04-25T14:57:33;6.93;;;2.83;;
830;SDS011;397;50.564;7.272;2023-04-25T15:00:01;7.47;;;3.20;;
830;SDS011;397;50.564;7.272;2023-04-25T15:02:31;6.57;;;2.97;;
830;SDS011;397;50.564;7.272;2023-04-25T15:05:00;4.10;;;1.77;;
830;SDS011;397;50.564;7.272;2023-04-25T15:07:28;9.10;;;2.43;;
830;SDS011;397;50.564;7.272;2023-04-25T15:09:56;9.03;;;2.90;;
830;SDS011;397;50.564;7.272;2023-04-25T15:12:23;5.40;;;2.60;;
830;SDS011;397;50.564;7.272;2023-04-25T15:14:52;5.47;;;2.63;;
830;SDS011;397;50.564;7.272;2023-04-25T15:17:21;6.90;;;2.40;;
830;SDS011;397;50.564;7.272;2023-04-25T15:19:48;4.90;;;2.00;;
830;SDS011;397;50.564;7.272;2023-04-25T15:22:16;5.00;;;2.10;;
830;SDS011;397;50.564;7.272;2023-04-25T15:24:43;5.43;;;3.80;;
830;SDS011;397;50.564;7.272;2023-04-25T15:27:11;15.30;;;5.17;;
830;SDS011;397;50.564;7.272;2023-04-25T15:29:39;9.80;;;3.40;;
830;SDS011;397;50.564;7.272;2023-04-25T15:32:07;5.93;;;2.47;;
830;SDS011;397;50.564;7.272;2023-04-25T15:34:35;6.40;;;2.80;;
830;SDS011;397;50.564;7.272;2023-04-25T15:37:02;6.50;;;2.90;;
830;SDS011;397;50.564;7.272;2023-04-25T15:39:30;4.30;;;3.00;;
830;SDS011;397;50.564;7.272;2023-04-25T15:41:58;4.17;;;2.57;;
830;SDS011;397;50.564;7.272;2023-04-25T15:44:26;8.67;;;3.63;;
830;SDS011;397;50.564;7.272;2023-04-25T15:46:54;5.70;;;3.37;;
830;SDS011;397;50.564;7.272;2023-04-25T15:49:22;5.63;;;2.23;;
830;SDS011;397;50.564;7.272;2023-04-25T15:51:49;5.20;;;3.20;;
830;SDS011;397;50.564;7.272;2023-04-25T15:54:17;5.17;;;3.20;;
830;SDS011;397;50.564;7.272;2023-04-25T15:56:45;6.60;;;3.00;;
830;SDS011;397;50.564;7.272;2023-04-25T15:59:12;8.90;;;6.17;;
830;SDS011;397;50.564;7.272;2023-04-25T16:01:40;6.10;;;2.80;;
830;SDS011;397;50.564;7.272;2023-04-25T16:04:07;5.57;;;2.87;;
830;SDS011;397;50.564;7.272;2023-04-25T16:06:35;6.60;;;4.10;;
830;SDS011;397;50.564;7.272;2023-04-25T16:09:03;3.87;;;2.83;;
830;SDS011;397;50.564;7.272;2023-04-25T16:11:31;4.07;;;2.50;;
830;SDS011;397;50.564;7.272;2023-04-25T16:13:59;6.17;;;2.50;;
830;SDS011;397;50.564;7.272;2023-04-25T16:16:26;6.97;;;2.23;;
830;SDS011;397;50.564;7.272;2023-04-25T16:18:54;3.97;;;1.87;;
830;SDS011;397;50.564;7.272;2023-04-25T16:21:21;4.63;;;2.40;;
830;SDS011;397;50.564;7.272;2023-04-25T16:23:49;5.03;;;1.80;;
830;SDS011;397;50.564;7.272;2023-04-25T16:26:16;5.77;;;2.40;;
830;SDS011;397;50.564;7.272;2023-04-25T16:28:44;5.40;;;2.30;;
830;SDS011;397;50.564;7.272;2023-04-25T16:31:11;5.53;;;2.17;;
830;SDS011;397;50.564;7.272;2023-04-25T16:33:39;7.40;;;1.97;;
830;SDS011;397;50.564;7.272;2023-04-25T16:36:07;4.17;;;2.00;;
830;SDS011;397;50.564;7.272;2023-04-25T16:38:34;6.60;;;1.80;;
830;SDS011;397;50.564;7.272;2023-04-25T16:41:04;7.70;;;1.70;;
830;SDS011;397;50.564;7.272;2023-04-25T16:43:33;4.83;;;1.77;;